sensor_id;sensor_type;location;lat;lon;timestamp;temperature;humidity
19220;DHT22;9744;49.364;7.484;2023-03-01T00:00:54;-0.30;99.90
19220;DHT22;9744;49.364;7.484;2023-03-01T00:03:27;-0.40;99.90
19220;DHT22;9744;49.364;7.484;2023-03-01T00:05:56;-0.50;99.90
19220;DHT22;9744;49.364;7.484;2023-03-01T00:08:25;-0.20;99.90
19220;DHT22;9744;49.364;7.484;2023-03-01T00:11:00;-0.50;99.90
19220;DHT22;9744;49.364;7.484;2023-03-01T00:13:28;-0.40;99.90
19220;DHT22;9744;49.364;7.484;2023-03-01T00:15:56;-0.40;99.90
19220;DHT22;9744;49.364;7.484;2023-03-01T00:18:23;-0.50;99.90
19220;DHT22;9744;49.364;7.484;2023-03-01T00:20:51;-0.40;99.90
19220;DHT22;9744;49.364;7.484;2023-03-01T00:23:20;-0.40;99.90
19220;DHT22;9744;49.364;7.484;2023-03-01T00:25:47;-0.50;99.90
19220;DHT22;9744;49.364;7.484;2023-03-01T00:28:14;-0.50;99.90
19220;DHT22;9744;49.364;7.484;2023-03-01T00:30:42;-0.50;99.90
19220;DHT22;9744;49.364;7.484;2023-03-01T00:33:09;-0.50;99.90
19220;DHT22;9744;49.364;7.484;2023-03-01T00:35:36;-0.50;99.90
19220;DHT22;9744;49.364;7.484;2023-03-01T00:38:04;-0.50;99.90
19220;DHT22;9744;49.364;7.484;2023-03-01T00:40:34;-0.50;99.90
19220;DHT22;9744;49.364;7.484;2023-03-01T00:43:03;-0.30;99.90
19220;DHT22;9744;49.364;7.484;2023-03-01T00:45:30;-0.40;99.90
19220;DHT22;9744;49.364;7.484;2023-03-01T00:47:58;-0.40;99.90
19220;DHT22;9744;49.364;7.484;2023-03-01T00:50:25;-0.50;99.90
19220;DHT22;9744;49.364;7.484;2023-03-01T00:52:53;-0.40;99.90
19220;DHT22;9744;49.364;7.484;2023-03-01T00:55:21;-0.40;99.90
19220;DHT22;9744;49.364;7.484;2023-03-01T00:57:50;-0.40;99.90
19220;DHT22;9744;49.364;7.484;2023-03-01T01:00:19;-0.40;99.90
19220;DHT22;9744;49.364;7.484;2023-03-01T01:02:47;-0.40;99.90
19220;DHT22;9744;49.364;7.484;2023-03-01T01:05:14;-0.50;99.90
19220;DHT22;9744;49.364;7.484;2023-03-01T01:07:47;-0.60;99.90
19220;DHT22;9744;49.364;7.484;2023-03-01T01:10:15;-0.70;99.90
19220;DHT22;9744;49.364;7.484;2023-03-01T01:12:44;-0.60;99.90
19220;DHT22;9744;49.364;7.484;2023-03-01T01:15:13;-0.60;99.90
19220;DHT22;9744;49.364;7.484;2023-03-01T01:17:42;-0.70;99.90
19220;DHT22;9744;49.364;7.484;2023-03-01T01:20:10;-0.70;99.90
19220;DHT22;9744;49.364;7.484;2023-03-01T01:22:38;-0.70;99.90
19220;DHT22;9744;49.364;7.484;2023-03-01T01:25:06;-0.70;99.90
19220;DHT22;9744;49.364;7.484;2023-03-01T01:27:33;-0.80;99.90
19220;DHT22;9744;49.364;7.484;2023-03-01T01:30:00;-0.80;99.90
19220;DHT22;9744;49.364;7.484;2023-03-01T01:32:29;-0.70;99.90
19220;DHT22;9744;49.364;7.484;2023-03-01T01:34:56;-0.60;99.90
19220;DHT22;9744;49.364;7.484;2023-03-01T01:37:24;-0.70;99.90
19220;DHT22;9744;49.364;7.484;2023-03-01T01:39:57;-0.60;99.90
19220;DHT22;9744;49.364;7.484;2023-03-01T01:42:25;-0.60;99.90
19220;DHT22;9744;49.364;7.484;2023-03-01T01:47:58;-0.50;99.90
19220;DHT22;9744;49.364;7.484;2023-03-01T01:50:27;-0.40;99.90
19220;DHT22;9744;49.364;7.484;2023-03-01T01:53:08;-0.40;99.90
19220;DHT22;9744;49.364;7.484;2023-03-01T01:55:37;-0.40;99.90
19220;DHT22;9744;49.364;7.484;2023-03-01T01:58:09;-0.50;99.90
19220;DHT22;9744;49.364;7.484;2023-03-01T02:00:38;-0.50;99.90
19220;DHT22;9744;49.364;7.484;2023-03-01T02:03:10;-0.50;99.90
19220;DHT22;9744;49.364;7.484;2023-03-01T02:05:43;-0.60;99.90
19220;DHT22;9744;49.364;7.484;2023-03-01T02:08:13;-0.50;99.90
19220;DHT22;9744;49.364;7.484;2023-03-01T02:10:41;-0.60;99.90
19220;DHT22;9744;49.364;7.484;2023-03-01T02:13:10;-0.50;99.90
19220;DHT22;9744;49.364;7.484;2023-03-01T02:15:39;-0.50;99.90
19220;DHT22;9744;49.364;7.484;2023-03-01T02:18:17;-0.60;99.90
19220;DHT22;9744;49.364;7.484;2023-03-01T02:20:55;-0.50;99.90
19220;DHT22;9744;49.364;7.484;2023-03-01T02:23:26;-0.70;99.90
19220;DHT22;9744;49.364;7.484;2023-03-01T02:25:58;-0.80;99.90
19220;DHT22;9744;49.364;7.484;2023-03-01T02:28:33;-0.70;99.90
19220;DHT22;9744;49.364;7.484;2023-03-01T02:31:02;-0.80;99.90
19220;DHT22;9744;49.364;7.484;2023-03-01T02:33:47;-0.90;99.90
19220;DHT22;9744;49.364;7.484;2023-03-01T02:36:20;-0.90;99.90
19220;DHT22;9744;49.364;7.484;2023-03-01T02:38:51;-1.00;99.90
19220;DHT22;9744;49.364;7.484;2023-03-01T02:41:19;-1.00;99.90
19220;DHT22;9744;49.364;7.484;2023-03-01T02:43:48;-1.00;99.90
19220;DHT22;9744;49.364;7.484;2023-03-01T02:46:18;-1.00;99.90
19220;DHT22;9744;49.364;7.484;2023-03-01T02:48:48;-1.10;99.90
19220;DHT22;9744;49.364;7.484;2023-03-01T02:51:27;-1.00;99.90
19220;DHT22;9744;49.364;7.484;2023-03-01T02:54:07;-1.00;99.90
19220;DHT22;9744;49.364;7.484;2023-03-01T02:56:37;-0.90;99.90
19220;DHT22;9744;49.364;7.484;2023-03-01T02:59:06;-0.90;99.90
19220;DHT22;9744;49.364;7.484;2023-03-01T03:01:35;-1.00;99.90
19220;DHT22;9744;49.364;7.484;2023-03-01T03:04:05;-1.00;99.90
19220;DHT22;9744;49.364;7.484;2023-03-01T03:06:33;-1.20;99.90
19220;DHT22;9744;49.364;7.484;2023-03-01T03:09:00;-1.20;99.90
19220;DHT22;9744;49.364;7.484;2023-03-01T03:11:27;-1.20;99.90
19220;DHT22;9744;49.364;7.484;2023-03-01T03:13:55;-1.20;99.90
19220;DHT22;9744;49.364;7.484;2023-03-01T03:16:25;-1.20;99.90
19220;DHT22;9744;49.364;7.484;2023-03-01T03:18:52;-1.20;99.90
19220;DHT22;9744;49.364;7.484;2023-03-01T03:21:19;-1.20;99.90
19220;DHT22;9744;49.364;7.484;2023-03-01T03:23:47;-1.20;99.90
19220;DHT22;9744;49.364;7.484;2023-03-01T03:26:14;-1.10;99.90
19220;DHT22;9744;49.364;7.484;2023-03-01T03:28:41;-1.00;99.90
19220;DHT22;9744;49.364;7.484;2023-03-01T03:31:08;-1.20;99.90
19220;DHT22;9744;49.364;7.484;2023-03-01T03:33:37;-1.20;99.90
19220;DHT22;9744;49.364;7.484;2023-03-01T03:36:05;-1.20;99.90
19220;DHT22;9744;49.364;7.484;2023-03-01T03:38:32;-1.30;99.90
19220;DHT22;9744;49.364;7.484;2023-03-01T03:41:01;-1.40;99.90
19220;DHT22;9744;49.364;7.484;2023-03-01T03:43:30;-1.40;99.90
19220;DHT22;9744;49.364;7.484;2023-03-01T03:45:57;-1.40;99.90
19220;DHT22;9744;49.364;7.484;2023-03-01T03:48:25;-1.30;99.90
19220;DHT22;9744;49.364;7.484;2023-03-01T03:50:55;-1.30;99.90
19220;DHT22;9744;49.364;7.484;2023-03-01T03:53:24;-1.20;99.90
19220;DHT22;9744;49.364;7.484;2023-03-01T03:55:51;-1.10;99.90
19220;DHT22;9744;49.364;7.484;2023-03-01T03:58:21;-1.00;99.90
19220;DHT22;9744;49.364;7.484;2023-03-01T04:00:49;-1.00;99.90
19220;DHT22;9744;49.364;7.484;2023-03-01T04:03:18;-0.90;99.90
19220;DHT22;9744;49.364;7.484;2023-03-01T04:05:46;-0.90;99.90
19220;DHT22;9744;49.364;7.484;2023-03-01T04:08:15;-1.20;99.90
19220;DHT22;9744;49.364;7.484;2023-03-01T04:10:48;-1.30;99.90
19220;DHT22;9744;49.364;7.484;2023-03-01T04:13:18;-1.30;99.90
19220;DHT22;9744;49.364;7.484;2023-03-01T04:15:46;-1.00;99.90
19220;DHT22;9744;49.364;7.484;2023-03-01T04:18:15;-1.10;99.90
19220;DHT22;9744;49.364;7.484;2023-03-01T04:20:43;-1.20;99.90
19220;DHT22;9744;49.364;7.484;2023-03-01T04:23:12;-1.20;99.90
19220;DHT22;9744;49.364;7.484;2023-03-01T04:25:48;-1.30;99.90
19220;DHT22;9744;49.364;7.484;2023-03-01T04:28:19;-1.30;99.90
19220;DHT22;9744;49.364;7.484;2023-03-01T04:30:47;-1.30;99.90
19220;DHT22;9744;49.364;7.484;2023-03-01T04:33:14;-1.20;99.90
19220;DHT22;9744;49.364;7.484;2023-03-01T04:35:41;-1.20;99.90
19220;DHT22;9744;49.364;7.484;2023-03-01T04:38:08;-1.30;99.90
19220;DHT22;9744;49.364;7.484;2023-03-01T04:40:36;-1.30;99.90
19220;DHT22;9744;49.364;7.484;2023-03-01T04:43:06;-1.40;99.90
19220;DHT22;9744;49.364;7.484;2023-03-01T04:45:33;-1.50;99.90
19220;DHT22;9744;49.364;7.484;2023-03-01T04:48:01;-1.50;99.90
19220;DHT22;9744;49.364;7.484;2023-03-01T04:50:28;-1.40;99.90
19220;DHT22;9744;49.364;7.484;2023-03-01T04:52:56;-1.40;99.90
19220;DHT22;9744;49.364;7.484;2023-03-01T04:55:24;-0.20;99.90
19220;DHT22;9744;49.364;7.484;2023-03-01T04:57:52;-1.30;99.90
19220;DHT22;9744;49.364;7.484;2023-03-01T05:00:22;-1.30;99.90
19220;DHT22;9744;49.364;7.484;2023-03-01T05:02:51;-1.30;99.90
19220;DHT22;9744;49.364;7.484;2023-03-01T05:05:22;-1.40;99.90
19220;DHT22;9744;49.364;7.484;2023-03-01T05:07:52;-1.40;99.90
19220;DHT22;9744;49.364;7.484;2023-03-01T05:10:20;-1.50;99.90
19220;DHT22;9744;49.364;7.484;2023-03-01T05:12:47;-1.70;99.90
19220;DHT22;9744;49.364;7.484;2023-03-01T05:15:14;-1.80;99.90
19220;DHT22;9744;49.364;7.484;2023-03-01T05:17:43;-1.80;99.90
19220;DHT22;9744;49.364;7.484;2023-03-01T05:20:10;-1.80;99.90
19220;DHT22;9744;49.364;7.484;2023-03-01T05:22:38;-1.80;99.90
19220;DHT22;9744;49.364;7.484;2023-03-01T05:25:05;-1.70;99.90
19220;DHT22;9744;49.364;7.484;2023-03-01T05:27:34;-1.60;99.90
19220;DHT22;9744;49.364;7.484;2023-03-01T05:30:02;-1.70;99.90
19220;DHT22;9744;49.364;7.484;2023-03-01T05:32:41;-1.70;99.90
19220;DHT22;9744;49.364;7.484;2023-03-01T05:35:11;-1.60;99.90
19220;DHT22;9744;49.364;7.484;2023-03-01T05:37:41;-1.60;99.90
19220;DHT22;9744;49.364;7.484;2023-03-01T05:40:10;-1.60;99.90
19220;DHT22;9744;49.364;7.484;2023-03-01T05:42:46;-1.70;99.90
19220;DHT22;9744;49.364;7.484;2023-03-01T05:45:14;-1.70;99.90
19220;DHT22;9744;49.364;7.484;2023-03-01T05:47:42;-1.60;99.90
19220;DHT22;9744;49.364;7.484;2023-03-01T05:50:16;-1.60;99.90
19220;DHT22;9744;49.364;7.484;2023-03-01T05:52:46;-1.60;99.90
19220;DHT22;9744;49.364;7.484;2023-03-01T05:55:16;-1.60;99.90
19220;DHT22;9744;49.364;7.484;2023-03-01T05:57:43;-1.70;99.90
19220;DHT22;9744;49.364;7.484;2023-03-01T06:00:12;-1.70;99.90
19220;DHT22;9744;49.364;7.484;2023-03-01T06:02:40;-1.60;99.90
19220;DHT22;9744;49.364;7.484;2023-03-01T06:05:09;-1.70;99.90
19220;DHT22;9744;49.364;7.484;2023-03-01T06:07:38;-1.70;99.90
19220;DHT22;9744;49.364;7.484;2023-03-01T06:10:06;-1.70;99.90
19220;DHT22;9744;49.364;7.484;2023-03-01T06:12:36;-1.70;99.90
19220;DHT22;9744;49.364;7.484;2023-03-01T06:15:04;-1.70;99.90
19220;DHT22;9744;49.364;7.484;2023-03-01T06:17:33;-1.70;99.90
19220;DHT22;9744;49.364;7.484;2023-03-01T06:20:04;-1.60;99.90
19220;DHT22;9744;49.364;7.484;2023-03-01T06:22:31;-1.70;99.90
19220;DHT22;9744;49.364;7.484;2023-03-01T06:25:00;-1.70;99.90
19220;DHT22;9744;49.364;7.484;2023-03-01T06:27:27;-1.70;99.90
19220;DHT22;9744;49.364;7.484;2023-03-01T06:29:55;-1.80;99.90
19220;DHT22;9744;49.364;7.484;2023-03-01T06:32:22;-1.90;99.90
19220;DHT22;9744;49.364;7.484;2023-03-01T06:34:49;-1.80;99.90
19220;DHT22;9744;49.364;7.484;2023-03-01T06:37:17;-1.80;99.90
19220;DHT22;9744;49.364;7.484;2023-03-01T06:39:44;-1.80;99.90
19220;DHT22;9744;49.364;7.484;2023-03-01T06:42:12;-1.80;99.90
19220;DHT22;9744;49.364;7.484;2023-03-01T06:44:40;-1.80;99.90
19220;DHT22;9744;49.364;7.484;2023-03-01T06:47:07;-1.70;99.90
19220;DHT22;9744;49.364;7.484;2023-03-01T06:49:34;-1.70;99.90
19220;DHT22;9744;49.364;7.484;2023-03-01T06:52:01;-1.60;99.90
19220;DHT22;9744;49.364;7.484;2023-03-01T06:54:28;-1.60;99.90
19220;DHT22;9744;49.364;7.484;2023-03-01T06:56:55;-1.60;99.90
19220;DHT22;9744;49.364;7.484;2023-03-01T06:59:24;-1.60;99.90
19220;DHT22;9744;49.364;7.484;2023-03-01T07:01:51;-1.60;99.90
19220;DHT22;9744;49.364;7.484;2023-03-01T07:04:18;-1.60;99.90
19220;DHT22;9744;49.364;7.484;2023-03-01T07:06:45;-1.50;99.90
19220;DHT22;9744;49.364;7.484;2023-03-01T07:09:20;-1.40;99.90
19220;DHT22;9744;49.364;7.484;2023-03-01T07:11:47;-1.50;99.90
19220;DHT22;9744;49.364;7.484;2023-03-01T07:14:15;-1.50;99.90
19220;DHT22;9744;49.364;7.484;2023-03-01T07:16:43;-1.20;99.90
19220;DHT22;9744;49.364;7.484;2023-03-01T07:19:10;-1.30;99.90
19220;DHT22;9744;49.364;7.484;2023-03-01T07:21:38;-1.10;99.90
19220;DHT22;9744;49.364;7.484;2023-03-01T07:24:06;-1.10;99.90
19220;DHT22;9744;49.364;7.484;2023-03-01T07:26:34;-1.10;99.90
19220;DHT22;9744;49.364;7.484;2023-03-01T07:29:02;-1.00;99.90
19220;DHT22;9744;49.364;7.484;2023-03-01T07:31:30;-1.00;99.90
19220;DHT22;9744;49.364;7.484;2023-03-01T07:33:59;-1.00;99.90
19220;DHT22;9744;49.364;7.484;2023-03-01T07:36:26;-0.90;99.90
19220;DHT22;9744;49.364;7.484;2023-03-01T07:38:53;-0.80;99.90
19220;DHT22;9744;49.364;7.484;2023-03-01T07:41:21;-0.70;99.90
19220;DHT22;9744;49.364;7.484;2023-03-01T07:43:48;-0.50;99.90
19220;DHT22;9744;49.364;7.484;2023-03-01T07:46:15;-0.40;99.90
19220;DHT22;9744;49.364;7.484;2023-03-01T07:48:44;-0.30;99.90
19220;DHT22;9744;49.364;7.484;2023-03-01T07:51:13;-0.30;99.90
19220;DHT22;9744;49.364;7.484;2023-03-01T07:53:40;-0.30;99.90
19220;DHT22;9744;49.364;7.484;2023-03-01T07:56:10;0.00;99.90
19220;DHT22;9744;49.364;7.484;2023-03-01T07:58:38;-0.10;99.90
19220;DHT22;9744;49.364;7.484;2023-03-01T08:01:08;0.10;99.90
19220;DHT22;9744;49.364;7.484;2023-03-01T08:03:36;0.30;99.90
19220;DHT22;9744;49.364;7.484;2023-03-01T08:06:05;0.40;99.90
19220;DHT22;9744;49.364;7.484;2023-03-01T08:08:34;0.60;99.90
19220;DHT22;9744;49.364;7.484;2023-03-01T08:11:03;0.80;99.90
19220;DHT22;9744;49.364;7.484;2023-03-01T08:13:31;1.00;99.90
19220;DHT22;9744;49.364;7.484;2023-03-01T08:16:01;1.10;99.90
19220;DHT22;9744;49.364;7.484;2023-03-01T08:18:29;1.20;99.90
19220;DHT22;9744;49.364;7.484;2023-03-01T08:21:00;1.20;99.90
19220;DHT22;9744;49.364;7.484;2023-03-01T08:23:27;1.40;99.90
19220;DHT22;9744;49.364;7.484;2023-03-01T08:26:03;1.40;99.90
19220;DHT22;9744;49.364;7.484;2023-03-01T08:28:32;1.60;99.90
19220;DHT22;9744;49.364;7.484;2023-03-01T08:30:59;1.80;99.90
19220;DHT22;9744;49.364;7.484;2023-03-01T08:33:26;2.00;99.90
19220;DHT22;9744;49.364;7.484;2023-03-01T08:36:02;1.90;99.90
19220;DHT22;9744;49.364;7.484;2023-03-01T08:38:29;2.10;99.90
19220;DHT22;9744;49.364;7.484;2023-03-01T08:41:00;2.40;99.90
19220;DHT22;9744;49.364;7.484;2023-03-01T08:43:28;2.60;99.90
19220;DHT22;9744;49.364;7.484;2023-03-01T08:45:55;2.70;99.90
19220;DHT22;9744;49.364;7.484;2023-03-01T08:48:22;3.10;99.90
19220;DHT22;9744;49.364;7.484;2023-03-01T08:50:50;3.30;99.90
19220;DHT22;9744;49.364;7.484;2023-03-01T08:53:17;3.30;99.90
19220;DHT22;9744;49.364;7.484;2023-03-01T08:55:44;3.50;99.90
19220;DHT22;9744;49.364;7.484;2023-03-01T08:58:13;3.60;99.90
19220;DHT22;9744;49.364;7.484;2023-03-01T09:00:40;3.80;99.90
19220;DHT22;9744;49.364;7.484;2023-03-01T09:03:07;4.00;99.90
19220;DHT22;9744;49.364;7.484;2023-03-01T09:05:34;4.30;99.90
19220;DHT22;9744;49.364;7.484;2023-03-01T09:08:02;4.50;99.90
19220;DHT22;9744;49.364;7.484;2023-03-01T09:10:29;4.60;99.90
19220;DHT22;9744;49.364;7.484;2023-03-01T09:12:57;4.80;99.90
19220;DHT22;9744;49.364;7.484;2023-03-01T09:15:29;4.90;99.90
19220;DHT22;9744;49.364;7.484;2023-03-01T09:17:56;5.10;99.90
19220;DHT22;9744;49.364;7.484;2023-03-01T09:20:24;5.20;99.90
19220;DHT22;9744;49.364;7.484;2023-03-01T09:22:52;5.30;99.90
19220;DHT22;9744;49.364;7.484;2023-03-01T09:25:20;5.50;99.90
19220;DHT22;9744;49.364;7.484;2023-03-01T09:27:47;5.70;99.90
19220;DHT22;9744;49.364;7.484;2023-03-01T09:30:14;5.90;99.90
19220;DHT22;9744;49.364;7.484;2023-03-01T09:32:43;6.10;99.90
19220;DHT22;9744;49.364;7.484;2023-03-01T09:35:11;6.20;99.90
19220;DHT22;9744;49.364;7.484;2023-03-01T09:37:38;6.40;99.90
19220;DHT22;9744;49.364;7.484;2023-03-01T09:40:14;6.60;99.90
19220;DHT22;9744;49.364;7.484;2023-03-01T09:42:48;6.70;99.90
19220;DHT22;9744;49.364;7.484;2023-03-01T09:45:26;6.80;99.90
19220;DHT22;9744;49.364;7.484;2023-03-01T09:47:56;7.00;99.90
19220;DHT22;9744;49.364;7.484;2023-03-01T09:50:34;7.10;99.90
19220;DHT22;9744;49.364;7.484;2023-03-01T09:53:05;7.20;99.90
19220;DHT22;9744;49.364;7.484;2023-03-01T09:55:38;7.30;99.90
19220;DHT22;9744;49.364;7.484;2023-03-01T09:58:24;7.50;99.90
19220;DHT22;9744;49.364;7.484;2023-03-01T10:00:56;7.70;99.90
19220;DHT22;9744;49.364;7.484;2023-03-01T10:03:33;7.90;99.90
19220;DHT22;9744;49.364;7.484;2023-03-01T10:06:06;8.10;99.90
19220;DHT22;9744;49.364;7.484;2023-03-01T10:08:39;8.20;99.90
19220;DHT22;9744;49.364;7.484;2023-03-01T10:11:19;8.40;99.90
19220;DHT22;9744;49.364;7.484;2023-03-01T10:13:54;8.60;99.90
19220;DHT22;9744;49.364;7.484;2023-03-01T10:16:27;8.60;99.90
19220;DHT22;9744;49.364;7.484;2023-03-01T10:19:00;8.70;99.90
19220;DHT22;9744;49.364;7.484;2023-03-01T10:21:30;8.80;99.90
19220;DHT22;9744;49.364;7.484;2023-03-01T10:24:08;8.90;99.90
19220;DHT22;9744;49.364;7.484;2023-03-01T10:26:46;9.00;99.90
19220;DHT22;9744;49.364;7.484;2023-03-01T10:29:15;9.20;99.90
19220;DHT22;9744;49.364;7.484;2023-03-01T10:31:44;9.40;99.90
19220;DHT22;9744;49.364;7.484;2023-03-01T10:34:16;9.50;99.90
19220;DHT22;9744;49.364;7.484;2023-03-01T10:36:45;9.50;99.90
19220;DHT22;9744;49.364;7.484;2023-03-01T10:39:16;9.60;99.90
19220;DHT22;9744;49.364;7.484;2023-03-01T10:41:58;9.70;99.90
19220;DHT22;9744;49.364;7.484;2023-03-01T10:44:41;9.80;99.90
19220;DHT22;9744;49.364;7.484;2023-03-01T10:47:15;9.90;99.90
19220;DHT22;9744;49.364;7.484;2023-03-01T10:50:01;10.00;99.90
19220;DHT22;9744;49.364;7.484;2023-03-01T10:52:31;10.10;99.90
19220;DHT22;9744;49.364;7.484;2023-03-01T10:55:01;10.30;99.90
19220;DHT22;9744;49.364;7.484;2023-03-01T10:57:33;10.30;99.90
19220;DHT22;9744;49.364;7.484;2023-03-01T11:00:24;10.50;99.90
19220;DHT22;9744;49.364;7.484;2023-03-01T11:03:10;10.60;99.90
19220;DHT22;9744;49.364;7.484;2023-03-01T11:05:51;10.60;99.90
19220;DHT22;9744;49.364;7.484;2023-03-01T11:08:33;10.80;99.90
19220;DHT22;9744;49.364;7.484;2023-03-01T11:11:06;10.90;99.90
19220;DHT22;9744;49.364;7.484;2023-03-01T11:13:35;11.00;99.90
19220;DHT22;9744;49.364;7.484;2023-03-01T11:16:05;11.10;99.90
19220;DHT22;9744;49.364;7.484;2023-03-01T11:18:33;11.20;99.90
19220;DHT22;9744;49.364;7.484;2023-03-01T11:21:02;11.30;99.90
19220;DHT22;9744;49.364;7.484;2023-03-01T11:23:30;11.50;99.90
19220;DHT22;9744;49.364;7.484;2023-03-01T11:26:04;11.60;99.90
19220;DHT22;9744;49.364;7.484;2023-03-01T11:28:33;11.70;99.90
19220;DHT22;9744;49.364;7.484;2023-03-01T11:31:04;11.90;99.90
19220;DHT22;9744;49.364;7.484;2023-03-01T11:33:39;12.00;99.90
19220;DHT22;9744;49.364;7.484;2023-03-01T11:36:16;12.10;99.90
19220;DHT22;9744;49.364;7.484;2023-03-01T11:38:46;12.20;99.90
19220;DHT22;9744;49.364;7.484;2023-03-01T11:41:16;12.20;99.90
19220;DHT22;9744;49.364;7.484;2023-03-01T11:43:50;12.40;99.90
19220;DHT22;9744;49.364;7.484;2023-03-01T11:46:46;12.40;99.90
19220;DHT22;9744;49.364;7.484;2023-03-01T11:49:33;12.40;99.90
19220;DHT22;9744;49.364;7.484;2023-03-01T11:52:11;12.50;99.90
19220;DHT22;9744;49.364;7.484;2023-03-01T11:54:49;12.60;99.20
19220;DHT22;9744;49.364;7.484;2023-03-01T11:57:31;12.50;99.80
19220;DHT22;9744;49.364;7.484;2023-03-01T12:00:11;12.50;98.40
19220;DHT22;9744;49.364;7.484;2023-03-01T12:03:21;12.50;98.50
19220;DHT22;9744;49.364;7.484;2023-03-01T12:06:12;12.50;97.90
19220;DHT22;9744;49.364;7.484;2023-03-01T12:09:07;12.50;97.10
19220;DHT22;9744;49.364;7.484;2023-03-01T12:12:00;12.30;97.90
19220;DHT22;9744;49.364;7.484;2023-03-01T12:14:50;12.30;98.00
19220;DHT22;9744;49.364;7.484;2023-03-01T12:17:48;12.40;97.80
19220;DHT22;9744;49.364;7.484;2023-03-01T12:20:28;12.50;97.20
19220;DHT22;9744;49.364;7.484;2023-03-01T12:23:15;12.60;96.90
19220;DHT22;9744;49.364;7.484;2023-03-01T12:25:49;12.50;98.20
19220;DHT22;9744;49.364;7.484;2023-03-01T12:28:26;12.40;97.00
19220;DHT22;9744;49.364;7.484;2023-03-01T12:31:19;12.50;97.00
19220;DHT22;9744;49.364;7.484;2023-03-01T12:33:56;12.50;97.50
19220;DHT22;9744;49.364;7.484;2023-03-01T12:36:51;12.70;96.80
19220;DHT22;9744;49.364;7.484;2023-03-01T12:39:38;12.70;96.80
19220;DHT22;9744;49.364;7.484;2023-03-01T12:42:17;12.60;95.90
19220;DHT22;9744;49.364;7.484;2023-03-01T12:44:57;12.60;96.40
19220;DHT22;9744;49.364;7.484;2023-03-01T12:47:40;12.70;96.00
19220;DHT22;9744;49.364;7.484;2023-03-01T12:50:14;12.80;95.90
19220;DHT22;9744;49.364;7.484;2023-03-01T12:52:47;12.60;95.70
19220;DHT22;9744;49.364;7.484;2023-03-01T12:55:25;12.70;95.80
19220;DHT22;9744;49.364;7.484;2023-03-01T12:58:00;12.80;95.30
19220;DHT22;9744;49.364;7.484;2023-03-01T13:00:35;13.10;95.70
19220;DHT22;9744;49.364;7.484;2023-03-01T13:03:12;13.10;95.00
19220;DHT22;9744;49.364;7.484;2023-03-01T13:05:52;13.10;95.10
19220;DHT22;9744;49.364;7.484;2023-03-01T13:08:26;13.00;95.70
19220;DHT22;9744;49.364;7.484;2023-03-01T13:10:58;12.70;94.90
19220;DHT22;9744;49.364;7.484;2023-03-01T13:13:28;12.90;94.60
19220;DHT22;9744;49.364;7.484;2023-03-01T13:15:56;13.10;94.80
19220;DHT22;9744;49.364;7.484;2023-03-01T13:18:30;13.00;94.30
19220;DHT22;9744;49.364;7.484;2023-03-01T13:21:02;13.10;94.00
19220;DHT22;9744;49.364;7.484;2023-03-01T13:23:34;13.00;93.50
19220;DHT22;9744;49.364;7.484;2023-03-01T13:26:05;12.80;93.80
19220;DHT22;9744;49.364;7.484;2023-03-01T13:28:50;12.90;94.90
19220;DHT22;9744;49.364;7.484;2023-03-01T13:34:53;13.00;95.00
19220;DHT22;9744;49.364;7.484;2023-03-01T13:37:26;13.20;93.60
19220;DHT22;9744;49.364;7.484;2023-03-01T13:40:00;13.30;93.50
19220;DHT22;9744;49.364;7.484;2023-03-01T13:42:42;13.50;93.10
19220;DHT22;9744;49.364;7.484;2023-03-01T13:45:35;13.60;92.70
19220;DHT22;9744;49.364;7.484;2023-03-01T13:48:10;13.30;92.30
19220;DHT22;9744;49.364;7.484;2023-03-01T13:50:45;13.20;92.50
19220;DHT22;9744;49.364;7.484;2023-03-01T13:53:17;13.30;92.40
19220;DHT22;9744;49.364;7.484;2023-03-01T13:55:47;13.10;92.80
19220;DHT22;9744;49.364;7.484;2023-03-01T13:58:20;13.10;92.70
19220;DHT22;9744;49.364;7.484;2023-03-01T14:00:55;12.90;93.30
19220;DHT22;9744;49.364;7.484;2023-03-01T14:03:23;13.20;92.90
19220;DHT22;9744;49.364;7.484;2023-03-01T14:06:00;13.00;93.00
19220;DHT22;9744;49.364;7.484;2023-03-01T14:08:30;13.00;93.70
19220;DHT22;9744;49.364;7.484;2023-03-01T14:17:06;12.70;93.30
19220;DHT22;9744;49.364;7.484;2023-03-01T14:19:37;12.70;94.80
19220;DHT22;9744;49.364;7.484;2023-03-01T14:22:13;13.00;94.40
19220;DHT22;9744;49.364;7.484;2023-03-01T14:24:47;13.10;92.70
19220;DHT22;9744;49.364;7.484;2023-03-01T14:27:15;13.20;92.80
19220;DHT22;9744;49.364;7.484;2023-03-01T14:29:42;13.10;91.90
19220;DHT22;9744;49.364;7.484;2023-03-01T14:32:18;13.20;91.90
19220;DHT22;9744;49.364;7.484;2023-03-01T14:34:48;13.10;92.00
19220;DHT22;9744;49.364;7.484;2023-03-01T14:37:20;12.80;91.50
19220;DHT22;9744;49.364;7.484;2023-03-01T14:39:50;12.30;91.70
19220;DHT22;9744;49.364;7.484;2023-03-01T14:42:18;11.80;92.60
19220;DHT22;9744;49.364;7.484;2023-03-01T14:44:48;11.60;93.10
19220;DHT22;9744;49.364;7.484;2023-03-01T14:47:25;11.70;93.90
19220;DHT22;9744;49.364;7.484;2023-03-01T14:49:57;11.70;93.70
19220;DHT22;9744;49.364;7.484;2023-03-01T14:52:31;11.90;93.90
19220;DHT22;9744;49.364;7.484;2023-03-01T14:55:03;11.50;94.80
19220;DHT22;9744;49.364;7.484;2023-03-01T14:57:31;11.60;95.00
19220;DHT22;9744;49.364;7.484;2023-03-01T15:00:01;11.60;95.80
19220;DHT22;9744;49.364;7.484;2023-03-01T15:02:33;11.80;95.80
19220;DHT22;9744;49.364;7.484;2023-03-01T15:05:03;12.30;94.40
19220;DHT22;9744;49.364;7.484;2023-03-01T15:07:35;12.50;93.90
19220;DHT22;9744;49.364;7.484;2023-03-01T15:10:04;12.10;93.40
19220;DHT22;9744;49.364;7.484;2023-03-01T15:12:36;12.00;94.30
19220;DHT22;9744;49.364;7.484;2023-03-01T15:15:19;11.90;94.70
19220;DHT22;9744;49.364;7.484;2023-03-01T15:17:53;11.90;94.60
19220;DHT22;9744;49.364;7.484;2023-03-01T15:20:24;12.00;93.90
19220;DHT22;9744;49.364;7.484;2023-03-01T15:22:54;12.00;93.50
19220;DHT22;9744;49.364;7.484;2023-03-01T15:25:23;12.00;93.40
19220;DHT22;9744;49.364;7.484;2023-03-01T15:27:53;11.80;93.80
19220;DHT22;9744;49.364;7.484;2023-03-01T15:30:23;11.90;93.90
19220;DHT22;9744;49.364;7.484;2023-03-01T15:33:17;11.70;94.50
19220;DHT22;9744;49.364;7.484;2023-03-01T15:35:47;11.50;93.80
19220;DHT22;9744;49.364;7.484;2023-03-01T15:38:30;11.50;93.80
19220;DHT22;9744;49.364;7.484;2023-03-01T15:40:58;11.10;93.70
19220;DHT22;9744;49.364;7.484;2023-03-01T15:43:46;10.90;93.80
19220;DHT22;9744;49.364;7.484;2023-03-01T15:46:20;11.10;93.10
19220;DHT22;9744;49.364;7.484;2023-03-01T15:48:51;10.90;93.50
19220;DHT22;9744;49.364;7.484;2023-03-01T15:51:27;10.50;93.40
19220;DHT22;9744;49.364;7.484;2023-03-01T15:53:56;10.20;93.50
19220;DHT22;9744;49.364;7.484;2023-03-01T15:56:25;10.00;93.90
19220;DHT22;9744;49.364;7.484;2023-03-01T15:58:52;9.80;94.40
19220;DHT22;9744;49.364;7.484;2023-03-01T16:01:19;9.70;94.80
19220;DHT22;9744;49.364;7.484;2023-03-01T16:03:48;9.60;94.80
19220;DHT22;9744;49.364;7.484;2023-03-01T16:06:15;9.50;94.90
19220;DHT22;9744;49.364;7.484;2023-03-01T16:08:43;9.70;95.40
19220;DHT22;9744;49.364;7.484;2023-03-01T16:11:15;9.80;95.60
19220;DHT22;9744;49.364;7.484;2023-03-01T16:13:43;9.80;95.60
19220;DHT22;9744;49.364;7.484;2023-03-01T16:16:12;9.70;95.90
19220;DHT22;9744;49.364;7.484;2023-03-01T16:18:43;9.60;94.70
19220;DHT22;9744;49.364;7.484;2023-03-01T16:21:18;9.50;95.40
19220;DHT22;9744;49.364;7.484;2023-03-01T16:23:46;9.30;94.80
19220;DHT22;9744;49.364;7.484;2023-03-01T16:26:14;9.30;94.90
19220;DHT22;9744;49.364;7.484;2023-03-01T16:28:42;9.20;95.60